CDT,Max TemperatureF,Mean TemperatureF,Min TemperatureF,Max Dew PointF,MeanDew PointF,Min DewpointF,Max Humidity, Mean Humidity, Min Humidity, Max Sea Level PressureIn, Mean Sea Level PressureIn, Min Sea Level PressureIn, Max VisibilityMiles, Mean VisibilityMiles, Min VisibilityMiles, Max Wind SpeedMPH, Mean Wind SpeedMPH, Max Gust SpeedMPH,PrecipitationIn, CloudCover, Events, WindDirDegrees
2013-8-1,87,76,66,68,65,61,94,66,40,30.13,30.07,30.00,10,10,8,9,4,,0.00,0,,78
2013-8-2,87,79,71,75,70,64,88,76,62,30.02,29.96,29.91,10,10,8,10,7,16,0.00,0,,165
2013-8-3,80,76,69,73,72,66,88,80,74,30.09,29.95,29.92,10,10,5,24,7,37,0.28,2,Thunderstorm,208
2013-8-4,,,,,,,,,,,,,,,,,,,,,,
2013-8-5,,,,,,,,,,,,,,,,,,,,,,
2013-8-6,,,,,,,,,,,,,,,,,,,,,,
2013-8-7,,,,,,,,,,,,,,,,,,,,,,
2013-8-8,,,,,,,,,,,,,,,,,,,,,,
2013-8-9,,,,,,,,,,,,,,,,,,,,,,
2013-8-10,,,,,,,,,,,,,,,,,,,,,,
2013-8-11,,,,,,,,,,,,,,,,,,,,,,
2013-8-12,,,,,,,,,,,,,,,,,,,,,,
2013-8-13,73,70,68,72,66,63,94,83,73,30.08,30.04,30.00,10,10,5,9,5,,0.00,2,,31
2013-8-14,78,71,64,63,58,55,88,68,44,30.17,30.12,30.08,10,10,9,13,7,16,0.00,1,,68
2013-8-15,78,68,57,55,54,52,82,63,42,30.15,30.10,30.04,10,10,10,9,4,,0.00,0,,102
2013-8-16,77,70,62,57,55,54,77,64,47,30.15,30.10,30.05,10,10,10,12,5,,0.00,1,,88
2013-8-17,78,68,57,59,57,54,88,69,47,30.17,30.13,30.08,10,10,8,9,3,16,0.00,2,,53
2013-8-18,82,71,60,63,60,57,94,68,42,30.17,30.12,30.08,10,9,2,8,2,,0.00,1,,110
2013-8-19,84,73,62,64,61,55,94,66,39,30.15,30.10,30.04,10,10,5,6,2,,0.00,1,,119
2013-8-20,86,75,64,64,62,61,94,66,43,30.13,30.09,30.05,10,10,5,7,3,,0.00,1,,161
2013-8-21,89,76,64,66,64,61,88,66,40,30.16,30.11,30.07,10,10,10,10,4,,0.00,0,,187
2013-8-22,89,78,66,68,65,63,88,66,43,30.15,30.10,30.06,10,10,10,8,3,,0.00,0,,130
2013-8-23,91,80,68,70,66,59,88,63,36,30.12,30.08,30.04,10,10,6,8,3,,0.00,0,,105
2013-8-24,89,80,71,70,67,64,83,65,43,30.18,30.14,30.08,10,10,10,12,6,,0.00,0,,120
2013-8-25,93,82,71,72,68,64,83,67,41,30.24,30.20,30.16,10,10,6,9,5,16,0.00,1,,138
2013-8-26,91,80,69,72,68,64,88,68,46,30.26,30.20,30.14,10,10,5,9,4,,0.00,1,,184
2013-8-27,89,78,66,68,65,63,88,66,43,30.17,30.12,30.07,10,10,10,12,3,,0.00,0,,206
2013-8-28,89,78,68,70,66,64,88,66,46,30.13,30.08,30.06,10,10,10,10,3,,0.00,1,,218
2013-8-29,93,81,69,70,68,66,88,65,41,30.12,30.07,30.03,10,10,10,9,2,,0.00,0,,237
2013-8-30,93,82,71,70,69,66,94,66,41,30.05,30.00,29.91,10,10,8,12,3,,0.00,0,,205
2013-8-31,95,83,71,72,68,66,83,62,39,29.95,29.90,29.85,10,10,10,12,5,18,0.00,0,,198